createdAt,value
2018-04-12T00:01:31.400Z,66.23
2018-04-12T00:03:58.846Z,64.40
2018-04-12T00:06:27.037Z,63.83
2018-04-12T00:08:54.489Z,69.10
2018-04-12T00:11:21.921Z,65.53
2018-04-12T00:13:50.156Z,65.97
2018-04-12T00:16:17.708Z,65.33
2018-04-12T00:18:45.138Z,63.27
2018-04-12T00:21:12.613Z,64.37
2018-04-12T00:23:40.066Z,63.57
2018-04-12T00:26:07.480Z,59.83
2018-04-12T00:28:35.687Z,62.17
2018-04-12T00:31:03.125Z,62.50
2018-04-12T00:33:31.321Z,63.93
2018-04-12T00:35:58.748Z,66.43
2018-04-12T00:38:26.184Z,58.03
2018-04-12T00:40:53.632Z,62.33
2018-04-12T00:43:21.082Z,64.10
2018-04-12T00:45:48.513Z,62.00
2018-04-12T00:48:15.950Z,61.33
2018-04-12T00:50:43.372Z,61.03
2018-04-12T00:53:11.582Z,58.37
2018-04-12T00:55:39.524Z,65.57
2018-04-12T00:58:06.971Z,65.30
2018-04-12T01:00:35.186Z,64.23
2018-04-12T01:03:02.605Z,61.43
2018-04-12T01:05:30.825Z,70.37
2018-04-12T01:07:58.253Z,68.47
2018-04-12T01:10:25.685Z,65.47
2018-04-12T01:12:53.884Z,67.60
2018-04-12T01:15:21.329Z,70.90
2018-04-12T01:17:48.761Z,65.07
2018-04-12T01:20:16.204Z,74.10
2018-04-12T01:22:43.644Z,77.27
2018-04-12T01:25:11.090Z,72.30
2018-04-12T01:27:38.545Z,62.70
2018-04-12T01:30:06.000Z,75.03
2018-04-12T01:32:33.433Z,73.80
2018-04-12T01:35:00.860Z,73.23
2018-04-12T01:37:29.076Z,73.60
2018-04-12T01:39:56.524Z,70.40
2018-04-12T01:42:23.971Z,73.07
2018-04-12T01:44:51.393Z,78.70
2018-04-12T01:47:19.603Z,80.43
2018-04-12T01:49:47.025Z,78.07
2018-04-12T01:52:15.237Z,71.33
2018-04-12T01:54:42.703Z,81.43
2018-04-12T01:57:10.144Z,81.57
2018-04-12T01:59:37.585Z,77.73
2018-04-12T02:02:05.028Z,76.33
2018-04-12T02:04:33.249Z,80.33
2018-04-12T02:07:00.693Z,74.50
2018-04-12T02:09:28.128Z,82.60
2018-04-12T02:11:55.558Z,78.57
2018-04-12T02:14:23.765Z,79.13
2018-04-12T02:16:51.207Z,77.27
2018-04-12T02:19:18.633Z,75.67
2018-04-12T02:21:46.064Z,81.70
2018-04-12T02:24:13.500Z,78.43
2018-04-12T02:26:40.980Z,77.33
2018-04-12T02:29:09.238Z,80.83
2018-04-12T02:31:36.669Z,81.50
2018-04-12T02:34:04.118Z,80.83
2018-04-12T02:36:32.302Z,81.33
2018-04-12T02:38:59.772Z,84.23
2018-04-12T02:41:27.184Z,79.27
2018-04-12T02:43:55.407Z,85.30
2018-04-12T02:46:22.829Z,84.83
2018-04-12T02:48:50.277Z,81.80
2018-04-12T02:51:18.468Z,79.07
2018-04-12T02:53:45.905Z,77.40
2018-04-12T02:56:13.340Z,88.87
2018-04-12T02:58:40.789Z,85.50
2018-04-12T03:01:08.233Z,81.10
2018-04-12T03:03:35.680Z,95.07
2018-04-12T03:06:03.140Z,86.03
2018-04-12T03:08:30.615Z,91.63
2018-04-12T03:10:58.017Z,88.10
2018-04-12T03:13:25.460Z,92.97
2018-04-12T03:15:52.894Z,93.93
2018-04-12T03:18:21.101Z,93.40
2018-04-12T03:20:48.528Z,95.30
2018-04-12T03:23:16.743Z,93.13
2018-04-12T03:25:44.177Z,99.40
2018-04-12T03:28:11.601Z,94.93
2018-04-12T03:30:40.225Z,95.67
2018-04-12T03:33:07.679Z,91.93
2018-04-12T03:35:35.116Z,102.80
2018-04-12T03:38:03.313Z,100.80
2018-04-12T03:40:30.752Z,105.90
2018-04-12T03:42:58.188Z,105.10
2018-04-12T03:45:26.404Z,100.00
2018-04-12T03:47:54.720Z,106.33
2018-04-12T03:50:22.201Z,101.70
2018-04-12T03:52:49.612Z,107.33
2018-04-12T03:55:17.813Z,113.80
2018-04-12T03:57:46.014Z,117.27
2018-04-12T04:00:13.456Z,119.87
2018-04-12T04:02:41.657Z,117.30
2018-04-12T04:05:09.101Z,115.87
2018-04-12T04:07:36.539Z,124.13
2018-04-12T04:10:04.759Z,136.03
2018-04-12T04:12:32.214Z,130.53
2018-04-12T04:15:20.304Z,122.97
2018-04-12T04:18:00.357Z,124.60
2018-04-12T04:20:40.621Z,118.30
2018-04-12T04:23:08.067Z,115.57
2018-04-12T04:25:36.278Z,110.23
2018-04-12T04:28:03.726Z,103.23
2018-04-12T04:30:31.189Z,113.77
2018-04-12T04:32:58.639Z,101.83
2018-04-12T04:35:26.080Z,102.37
2018-04-12T04:37:53.527Z,102.83
2018-04-12T04:40:21.729Z,98.87
2018-04-12T04:42:49.169Z,105.83
2018-04-12T04:45:16.602Z,102.63
2018-04-12T04:47:44.816Z,108.67
2018-04-12T04:50:12.289Z,98.73
2018-04-12T04:52:39.732Z,100.67
2018-04-12T04:55:07.165Z,109.63
2018-04-12T04:57:34.608Z,103.63
2018-04-12T05:00:02.045Z,113.17
2018-04-12T05:02:29.495Z,112.33
2018-04-12T05:04:56.929Z,105.63
2018-04-12T05:07:24.393Z,105.23
2018-04-12T05:09:51.850Z,100.17
2018-04-12T05:12:19.304Z,108.40
2018-04-12T05:14:46.760Z,112.93
2018-04-12T05:17:14.216Z,112.97
2018-04-12T05:19:41.657Z,104.63
2018-04-12T05:22:09.113Z,103.17
2018-04-12T05:24:36.551Z,106.13
2018-04-12T05:27:04.005Z,106.27
2018-04-12T05:29:31.451Z,100.30
2018-04-12T05:31:58.917Z,96.40
2018-04-12T05:34:26.374Z,97.00
2018-04-12T05:36:53.797Z,100.43
2018-04-12T05:39:22.017Z,97.80
2018-04-12T05:41:49.440Z,89.60
2018-04-12T05:44:16.886Z,100.00
2018-04-12T05:46:45.089Z,96.43
2018-04-12T05:49:12.531Z,96.73
2018-04-12T05:51:39.969Z,92.80
2018-04-12T05:54:08.182Z,87.37
2018-04-12T05:56:35.611Z,85.30
2018-04-12T05:59:03.050Z,81.80
2018-04-12T06:01:31.252Z,82.60
2018-04-12T06:03:58.699Z,80.90
2018-04-12T06:06:26.136Z,89.47
2018-04-12T06:08:54.345Z,89.73
2018-04-12T06:11:21.785Z,88.23
2018-04-12T06:13:49.229Z,84.13
2018-04-12T06:16:16.661Z,82.27
2018-04-12T06:18:44.869Z,84.00
2018-04-12T06:21:12.300Z,82.87
2018-04-12T06:23:40.516Z,80.03
2018-04-12T06:26:07.959Z,79.63
2018-04-12T06:28:35.397Z,84.57
2018-04-12T06:31:02.857Z,84.43
2018-04-12T06:33:30.297Z,73.23
2018-04-12T06:35:58.501Z,76.47
2018-04-12T06:38:25.941Z,78.73
2018-04-12T06:40:53.392Z,80.93
2018-04-12T06:43:20.868Z,77.97
2018-04-12T06:45:48.308Z,72.33
2018-04-12T06:48:15.756Z,77.33
2018-04-12T06:50:43.961Z,75.27
2018-04-12T06:53:11.397Z,77.30
2018-04-12T06:55:38.874Z,73.97
2018-04-12T06:58:06.299Z,74.57
2018-04-12T07:00:33.736Z,75.53
2018-04-12T07:03:01.941Z,73.40
2018-04-12T07:05:29.386Z,75.40
2018-04-12T07:07:56.858Z,74.50
2018-04-12T07:10:24.312Z,72.43
2018-04-12T07:12:51.744Z,72.47
2018-04-12T07:15:19.985Z,73.13
2018-04-12T07:17:47.426Z,73.93
2018-04-12T07:20:14.880Z,65.47
2018-04-12T07:22:42.316Z,67.00
2018-04-12T07:25:09.754Z,65.73
2018-04-12T07:27:37.204Z,70.27
2018-04-12T07:30:04.680Z,66.57
2018-04-12T07:32:32.115Z,65.90
2018-04-12T07:34:59.573Z,67.50
2018-04-12T07:37:27.014Z,68.80
2018-04-12T07:39:55.256Z,67.23
2018-04-12T07:42:22.691Z,56.73
2018-04-12T07:44:50.136Z,57.67
2018-04-12T07:47:17.569Z,54.13
2018-04-12T07:49:45.510Z,54.47
2018-04-12T07:52:13.740Z,51.23
2018-04-12T07:54:41.221Z,53.70
2018-04-12T07:57:08.653Z,53.67
2018-04-12T07:59:36.087Z,50.53
2018-04-12T08:02:03.585Z,57.90
2018-04-12T08:04:30.970Z,52.23
2018-04-12T08:06:59.214Z,50.73
2018-04-12T08:09:26.643Z,50.53
2018-04-12T08:11:54.101Z,46.00
2018-04-12T08:14:21.547Z,54.83
2018-04-12T08:16:49.004Z,50.37
2018-04-12T08:19:16.448Z,48.37
2018-04-12T08:21:43.893Z,49.40
2018-04-12T08:24:11.333Z,52.57
2018-04-12T08:26:39.541Z,47.90
2018-04-12T08:29:06.980Z,50.90
2018-04-12T08:31:34.426Z,54.27
2018-04-12T08:34:02.640Z,46.63
2018-04-12T08:36:30.073Z,43.43
2018-04-12T08:38:57.508Z,47.47
2018-04-12T08:41:25.710Z,43.43
2018-04-12T08:43:53.156Z,43.13
2018-04-12T08:46:20.588Z,46.67
2018-04-12T08:48:48.800Z,45.10
2018-04-12T08:51:16.244Z,46.37
2018-04-12T08:53:43.689Z,45.47
2018-04-12T08:56:11.128Z,45.50
2018-04-12T08:58:39.372Z,41.90
2018-04-12T09:01:06.813Z,40.17
2018-04-12T09:03:35.021Z,43.67
2018-04-12T09:06:03.224Z,46.30
2018-04-12T09:08:31.423Z,45.70
2018-04-12T09:10:58.862Z,41.20
2018-04-12T09:13:26.293Z,42.03
2018-04-12T09:15:54.508Z,43.43
2018-04-12T09:18:21.947Z,43.47
2018-04-12T09:20:49.381Z,34.17
2018-04-12T09:23:17.595Z,43.63
2018-04-12T09:25:45.041Z,43.23
2018-04-12T09:28:12.496Z,41.83
2018-04-12T09:30:39.917Z,43.23
2018-04-12T09:33:07.408Z,40.57
2018-04-12T09:35:34.838Z,40.90
2018-04-12T09:38:03.069Z,37.50
2018-04-12T09:40:30.508Z,39.50
2018-04-12T09:42:57.956Z,42.47
2018-04-12T09:45:26.084Z,43.17
2018-04-12T09:47:53.549Z,41.20
2018-04-12T09:50:21.752Z,42.60
2018-04-12T09:52:49.202Z,43.20
2018-04-12T09:55:16.662Z,40.40
2018-04-12T09:57:44.092Z,36.77
2018-04-12T10:00:12.296Z,41.33
2018-04-12T10:02:45.457Z,41.47
2018-04-12T10:05:19.279Z,39.57
2018-04-12T10:07:51.656Z,44.10
2018-04-12T10:10:19.119Z,39.67
2018-04-12T10:12:46.567Z,36.33
2018-04-12T10:15:14.026Z,36.50
2018-04-12T10:17:41.475Z,40.10
2018-04-12T10:20:08.920Z,39.67
2018-04-12T10:22:36.353Z,34.53
2018-04-12T10:25:04.609Z,34.43
2018-04-12T10:27:32.048Z,38.33
2018-04-12T10:29:59.492Z,35.60
2018-04-12T10:32:26.932Z,35.70
2018-04-12T10:34:54.373Z,34.53
2018-04-12T10:37:21.812Z,35.70
2018-04-12T10:39:50.038Z,34.77
2018-04-12T10:42:17.468Z,37.80
2018-04-12T10:44:44.892Z,33.03
2018-04-12T10:47:13.102Z,35.37
2018-04-12T10:49:40.572Z,34.80
2018-04-12T10:52:07.992Z,38.63
2018-04-12T10:54:35.428Z,36.53
2018-04-12T10:57:03.636Z,33.40
2018-04-12T10:59:31.077Z,32.67
2018-04-12T11:01:58.513Z,32.47
2018-04-12T11:04:26.720Z,37.70
2018-04-12T11:06:54.160Z,37.70
2018-04-12T11:09:21.592Z,33.77
2018-04-12T11:11:49.033Z,36.57
2018-04-12T11:14:16.478Z,39.43
2018-04-12T11:16:43.929Z,35.37
2018-04-12T11:19:11.377Z,36.50
2018-04-12T11:21:38.836Z,35.33
2018-04-12T11:24:06.274Z,42.23
2018-04-12T11:26:33.717Z,39.60
2018-04-12T11:29:01.151Z,37.93
2018-04-12T11:31:29.362Z,41.30
2018-04-12T11:33:56.798Z,38.43
2018-04-12T11:36:24.250Z,40.13
2018-04-12T11:38:51.668Z,38.13
2018-04-12T11:41:19.129Z,39.93
2018-04-12T11:43:47.340Z,34.57
2018-04-12T11:46:14.765Z,38.07
2018-04-12T11:48:42.975Z,38.63
2018-04-12T11:51:10.404Z,42.00
2018-04-12T11:53:38.632Z,41.70
2018-04-12T11:56:06.105Z,37.87
2018-04-12T11:58:33.526Z,42.50
2018-04-12T12:01:00.957Z,43.97
2018-04-12T12:03:28.402Z,44.77
2018-04-12T12:05:56.596Z,45.17
2018-04-12T12:08:24.032Z,44.13
2018-04-12T12:10:51.478Z,44.97
2018-04-12T12:13:19.708Z,48.33
2018-04-12T12:15:47.178Z,47.33
2018-04-12T12:18:14.614Z,44.80
2018-04-12T12:20:42.052Z,41.93
2018-04-12T12:23:09.545Z,51.63
2018-04-12T12:25:36.986Z,48.00
2018-04-12T12:28:04.428Z,42.63
2018-04-12T12:30:31.882Z,50.90
2018-04-12T12:32:59.313Z,46.90
2018-04-12T12:35:27.717Z,50.33
2018-04-12T12:37:55.162Z,52.47
2018-04-12T12:40:22.599Z,44.63
2018-04-12T12:42:50.052Z,45.53
2018-04-12T12:45:17.574Z,49.63
2018-04-12T12:47:45.013Z,48.97
2018-04-12T12:50:12.445Z,52.00
2018-04-12T12:52:39.904Z,51.43
2018-04-12T12:55:07.378Z,49.93
2018-04-12T12:57:34.802Z,50.57
2018-04-12T13:00:02.251Z,54.53
2018-04-12T13:02:30.497Z,50.77
2018-04-12T13:04:57.940Z,50.40
2018-04-12T13:07:25.412Z,51.53
2018-04-12T13:09:52.848Z,50.33
2018-04-12T13:12:20.283Z,50.30
2018-04-12T13:14:47.742Z,50.83
2018-04-12T13:17:15.221Z,52.07
2018-04-12T13:19:42.660Z,49.97
2018-04-12T13:22:10.096Z,50.67
2018-04-12T13:24:37.549Z,53.57
2018-04-12T13:27:04.969Z,55.10
2018-04-12T13:29:33.181Z,55.50
2018-04-12T13:32:00.637Z,55.00
2018-04-12T13:34:28.096Z,54.03
2018-04-12T13:36:55.537Z,56.00
2018-04-12T13:39:23.014Z,53.20
2018-04-12T13:41:50.450Z,54.23
2018-04-12T13:44:17.926Z,57.37
2018-04-12T13:46:45.344Z,58.73
2018-04-12T13:49:12.783Z,54.90
2018-04-12T13:51:40.992Z,55.47
2018-04-12T13:54:08.424Z,54.00
2018-04-12T13:56:36.726Z,55.97
2018-04-12T13:59:04.888Z,52.20
2018-04-12T14:01:32.325Z,55.80
2018-04-12T14:03:59.761Z,58.73
2018-04-12T14:06:27.212Z,55.03
2018-04-12T14:08:54.656Z,54.00
2018-04-12T14:11:22.133Z,55.20
2018-04-12T14:13:50.331Z,51.20
2018-04-12T14:16:17.768Z,61.20
2018-04-12T14:18:45.968Z,55.37
2018-04-12T14:21:13.400Z,54.97
2018-04-12T14:23:41.640Z,52.13
2018-04-12T14:26:09.103Z,54.03
2018-04-12T14:28:36.534Z,54.13
2018-04-12T14:31:03.987Z,50.83
2018-04-12T14:33:31.413Z,52.93
2018-04-12T14:35:58.853Z,56.90
2018-04-12T14:38:27.051Z,49.23
2018-04-12T14:40:54.490Z,54.00
2018-04-12T14:43:21.925Z,52.83
2018-04-12T14:45:50.146Z,54.17
2018-04-12T14:48:17.591Z,55.50
2018-04-12T14:50:45.028Z,58.10
2018-04-12T14:53:13.224Z,51.20
2018-04-12T14:55:40.661Z,50.30
2018-04-12T14:58:08.105Z,51.23
2018-04-12T15:00:36.312Z,56.30
2018-04-12T15:03:03.755Z,50.77
2018-04-12T15:05:31.196Z,50.97
2018-04-12T15:07:58.649Z,52.53
2018-04-12T15:10:26.848Z,54.83
2018-04-12T15:12:54.281Z,55.27
2018-04-12T15:15:21.716Z,52.03
2018-04-12T15:17:49.153Z,53.93
2018-04-12T15:20:16.584Z,52.50
2018-04-12T15:22:44.035Z,53.73
2018-04-12T15:25:11.469Z,52.53
2018-04-12T15:27:38.917Z,54.57
2018-04-12T15:30:06.361Z,52.27
2018-04-12T15:32:34.567Z,52.70
2018-04-12T15:35:02.009Z,52.27
2018-04-12T15:37:29.446Z,56.63
2018-04-12T15:39:57.650Z,55.87
2018-04-12T15:42:25.092Z,57.07
2018-04-12T15:44:52.540Z,49.07
2018-04-12T15:47:20.756Z,53.47
2018-04-12T15:49:48.189Z,55.00
2018-04-12T15:52:15.624Z,51.33
2018-04-12T15:54:43.090Z,54.90
2018-04-12T15:57:10.529Z,52.20
2018-04-12T15:59:38.733Z,54.73
2018-04-12T16:02:08.005Z,56.03
2018-04-12T16:04:36.204Z,61.90
2018-04-12T16:07:03.645Z,52.33
2018-04-12T16:09:31.087Z,55.33
2018-04-12T16:11:59.288Z,55.90
2018-04-12T16:14:26.724Z,51.77
2018-04-12T16:16:54.165Z,56.07
2018-04-12T16:19:22.497Z,55.83
2018-04-12T16:21:49.934Z,53.17
2018-04-12T16:24:17.378Z,61.27
2018-04-12T16:26:44.817Z,57.90
2018-04-12T16:29:12.252Z,60.00
2018-04-12T16:31:40.461Z,58.63
2018-04-12T16:34:08.721Z,57.67
2018-04-12T16:36:36.919Z,58.27
2018-04-12T16:39:04.413Z,54.20
2018-04-12T16:41:31.797Z,57.53
2018-04-12T16:44:00.017Z,60.17
2018-04-12T16:46:27.454Z,64.47
2018-04-12T16:48:54.901Z,59.57
2018-04-12T16:51:22.333Z,62.57
2018-04-12T16:53:50.550Z,61.47
2018-04-12T16:56:17.994Z,59.43
2018-04-12T16:58:45.432Z,60.37
2018-04-12T17:01:12.877Z,51.33
2018-04-12T17:03:41.133Z,48.73
2018-04-12T17:06:08.517Z,57.37
2018-04-12T17:08:35.957Z,44.03
2018-04-12T17:11:04.166Z,41.63
2018-04-12T17:13:31.610Z,36.73
2018-04-12T17:15:59.046Z,37.97
2018-04-12T17:18:27.257Z,40.30
2018-04-12T17:20:54.695Z,39.07
2018-04-12T17:23:22.133Z,40.33
2018-04-12T17:25:50.343Z,42.27
2018-04-12T17:28:17.777Z,44.40
2018-04-12T17:30:46.064Z,39.40
2018-04-12T17:33:13.518Z,36.30
2018-04-12T17:35:40.943Z,35.57
2018-04-12T17:38:09.163Z,33.43
2018-04-12T17:40:36.600Z,32.30
2018-04-12T17:43:04.037Z,28.83
2018-04-12T17:45:32.234Z,31.23
2018-04-12T17:47:59.685Z,36.33
2018-04-12T17:50:27.117Z,39.37
2018-04-12T17:52:55.333Z,41.57
2018-04-12T17:55:22.765Z,39.20
2018-04-12T17:57:50.512Z,40.13
2018-04-12T18:00:18.712Z,41.17
2018-04-12T18:02:46.149Z,40.20
2018-04-12T18:05:13.593Z,40.20
2018-04-12T18:07:41.799Z,39.57
2018-04-12T18:10:09.239Z,47.47
2018-04-12T18:12:36.700Z,52.13
2018-04-12T18:15:04.153Z,55.73
2018-04-12T18:17:31.599Z,59.03
2018-04-12T18:19:59.791Z,60.80
2018-04-12T18:22:27.244Z,61.87
2018-04-12T18:24:54.688Z,60.93
2018-04-12T18:27:22.124Z,62.53
2018-04-12T18:29:51.342Z,69.73
2018-04-12T18:32:19.549Z,68.87
2018-04-12T18:34:51.606Z,78.77
2018-04-12T18:37:19.048Z,72.90
2018-04-12T18:39:46.497Z,79.30
2018-04-12T18:42:13.961Z,79.83
2018-04-12T18:44:41.389Z,76.47
2018-04-12T18:47:09.598Z,79.47
2018-04-12T18:49:37.040Z,79.40
2018-04-12T18:52:04.480Z,80.90
2018-04-12T18:54:32.672Z,84.30
2018-04-12T18:57:00.122Z,85.20
2018-04-12T19:20:54.232Z,55.70
2018-04-12T19:23:21.665Z,54.90
2018-04-12T19:44:17.244Z,77.07
2018-04-12T19:46:44.676Z,82.83
2018-04-12T19:49:12.120Z,78.90
2018-04-12T19:51:39.541Z,85.93
2018-04-12T19:54:06.984Z,89.13
2018-04-12T19:56:34.416Z,87.97
2018-04-12T19:59:01.867Z,93.10
2018-04-12T20:01:29.297Z,94.37
2018-04-12T20:03:56.740Z,91.33
2018-04-12T20:06:24.941Z,95.97
2018-04-12T20:08:52.392Z,96.53
2018-04-12T20:11:19.833Z,100.73
2018-04-12T20:13:47.285Z,102.57
2018-04-12T20:16:15.484Z,105.43
2018-04-12T20:18:42.915Z,109.27
2018-04-12T20:21:10.360Z,113.17
2018-04-12T20:23:38.569Z,102.70
2018-04-12T20:26:06.003Z,103.30
2018-04-12T20:28:33.449Z,103.43
2018-04-12T20:31:00.889Z,107.80
2018-04-12T20:33:29.101Z,110.97
2018-04-12T20:35:56.519Z,108.13
2018-04-12T20:38:24.733Z,109.53
2018-04-12T20:40:52.173Z,104.93
2018-04-12T20:43:19.613Z,104.80
2018-04-12T20:45:47.804Z,112.87
2018-04-12T20:48:15.252Z,108.00
2018-04-12T20:50:42.680Z,115.77
2018-04-12T20:53:10.148Z,109.63
2018-04-12T20:55:38.359Z,116.10
2018-04-12T20:58:05.803Z,124.57
2018-04-12T21:00:33.285Z,117.03
2018-04-12T21:03:01.444Z,106.10
2018-04-12T21:05:28.884Z,108.40
2018-04-12T21:07:56.321Z,109.07
2018-04-12T21:10:24.529Z,101.90
2018-04-12T21:12:51.959Z,102.90
2018-04-12T21:15:19.400Z,115.70
2018-04-12T21:17:47.609Z,117.27
2018-04-12T21:20:15.158Z,124.43
2018-04-12T21:22:42.600Z,120.83
2018-04-12T21:25:10.052Z,121.57
2018-04-12T21:27:38.241Z,110.67
2018-04-12T21:30:05.684Z,110.93
2018-04-12T21:32:33.129Z,106.53
2018-04-12T21:35:01.333Z,111.03
2018-04-12T21:37:28.768Z,112.37
2018-04-12T21:39:56.216Z,116.13
2018-04-12T21:42:24.417Z,112.77
2018-04-12T21:44:51.866Z,115.57
2018-04-12T21:47:19.300Z,100.00
2018-04-12T21:49:47.527Z,107.60
2018-04-12T21:52:14.938Z,124.43
2018-04-12T21:54:42.377Z,134.27
2018-04-12T21:57:10.590Z,140.63
2018-04-12T21:59:38.029Z,137.90
2018-04-12T22:02:05.463Z,139.57
2018-04-12T22:04:33.660Z,128.87
2018-04-12T22:07:01.097Z,123.80
2018-04-12T22:09:29.311Z,134.67
2018-04-12T22:11:56.753Z,136.83
2018-04-12T22:14:24.196Z,130.17
2018-04-12T22:16:51.660Z,120.50
2018-04-12T22:19:19.101Z,131.33
2018-04-12T22:21:46.539Z,129.07
2018-04-12T22:24:14.753Z,135.53
2018-04-12T22:26:42.190Z,125.97
2018-04-12T22:29:09.679Z,142.47
2018-04-12T22:31:37.115Z,146.43
2018-04-12T22:34:04.551Z,142.10
2018-04-12T22:36:31.992Z,136.40
2018-04-12T22:39:00.216Z,139.37
2018-04-12T22:41:27.644Z,143.23
2018-04-12T22:43:55.088Z,140.50
2018-04-12T22:46:22.536Z,138.13
2018-04-12T22:48:50.743Z,137.20
2018-04-12T22:51:18.179Z,135.33
2018-04-12T22:53:45.623Z,139.73
2018-04-12T22:56:13.829Z,127.93
2018-04-12T22:58:41.281Z,140.10
2018-04-12T23:01:08.721Z,138.33
2018-04-12T23:03:36.156Z,133.77
2018-04-12T23:06:04.366Z,132.50
2018-04-12T23:08:31.805Z,138.80
2018-04-12T23:10:59.240Z,129.77
2018-04-12T23:13:27.450Z,133.87
2018-04-12T23:15:54.888Z,137.67
2018-04-12T23:18:22.329Z,136.20
2018-04-12T23:20:50.540Z,140.63
2018-04-12T23:23:17.976Z,134.60
2018-04-12T23:25:45.425Z,135.40
2018-04-12T23:28:13.622Z,130.47
2018-04-12T23:30:42.417Z,128.30
2018-04-12T23:33:09.861Z,134.73
2018-04-12T23:35:37.312Z,125.93
2018-04-12T23:38:04.749Z,123.97
2018-04-12T23:40:32.956Z,118.33
2018-04-12T23:43:00.403Z,124.90
2018-04-12T23:45:27.848Z,126.27
2018-04-12T23:47:55.288Z,128.10
2018-04-12T23:50:22.737Z,124.97
2018-04-12T23:52:50.947Z,124.50
2018-04-12T23:55:18.400Z,129.70
2018-04-12T23:57:45.848Z,120.73
